VDPPVTSP

Guest
Details From VDPP - Phnom Penh Intl
To VTSP - Phuket Intl
Flight Number -
Tags generated
Created
Modified
Stats Distance 445 nm / 825 km
Max Altitude 34,000 ft / 10,363 m
Waypoints 9
Social Downloads 5
Likes 0
Share

Download

Looking for another format? Having issues loading an existing format? Contact us
Advertisement - Login to hide

Notes

Basic altitude profile: - Ascent Rate: 2500ft/min - Ascent Speed: 250kts - Cruise Altitude: 35000ft - Cruise Speed: 420kts - Descent Rate: 1500ft/min - Descent Speed: 250kts Options: - Use NATs: yes - Use PACOTS: yes - Use low airways: yes - Use high airways: yes

Route

VDPP PNH R589 UPNEP R575 SMU W32 STN VTSP

ID Type Via Altitude (ft/m) Position (lat/lon) Dist (leg/tot) Name
O VDPP APT - 0 / 0 11.54654 / 104.84414 - / 0 nm Phnom Penh Intl
PNH VOR - 0 / 0 11.54667 / 104.84167 0 / 0 nm PHNOM PENH VOR-DME
BENSA FIX R589 (AWY-LO) 34,000 / 10,363 10.44000 / 102.44500 156 / 156 nm
PETRA FIX R589 (AWY-HI) 34,000 / 10,363 10.23659 / 101.90275 34 / 190 nm
KUMTO FIX R589 (AWY-HI) 34,000 / 10,363 9.96565 / 101.19633 44 / 235 nm
UPNEP FIX R589 (AWY-HI) 34,000 / 10,363 9.70364 / 100.49344 44 / 279 nm
SMU VOR R575 (AWY-HI) 28,600 / 8,717 9.54708 / 100.06174 27 / 307 nm SAMUI VOR-DME
STN VOR W32 (AWY-HI) 16,700 / 5,090 9.12951 / 99.13475 60 / 367 nm SURAT THANI VOR-DME
O VTSP APT - 0 / 0 8.11320 / 98.31687 77 / 445 nm Phuket Intl

Altitude Profile

Advertisement - Login to hide

Weather


0- 5 10 15 20 25 30 35+ Temperature / °C

Clouds and Precipitation
Forecast for 2020-12-03 18:00 UTC. Updated an hour ago

Ground ~20,000 ft ~40,000 ft Winds

VDPP

Details ICAO VDPP (PNH)
Name Phnom Penh Intl
Region Cambodia
Timezone Asia/Phnom_Penh (UTC+7.0)
Stats Elevation 40 ft / 12 m (AMSL)
Location 11.546500° 104.844000°
Runways 1
Magnetic Variation 0.543° W

METAR

VDPP 031630Z 05011KT 9000 FEW017 26/18 Q1011

Decode

TAF

TAF VDPP 031100Z 0312/0406 03009KT 9999 SCT017 SCT040= TAF VDSR 031100Z 0312/0406 04008KT 9999 SCT017 SCT040

Decode

Departure Runways

ID Width Length Bearing (true/mag) Surface Threshold Overrun Markings Lighting
05 148 ft / 45 m 9,858 ft / 3,005 m 45.57° / 46.11° ASPHALT 0 ft / 0 m 666 ft / 203 m PREC-APP EDGE THRESHOLD
23 148 ft / 45 m 9,858 ft / 3,005 m 225.58° / 226.12° ASPHALT 492 ft / 150 m 653 ft / 199 m PREC-APP EDGE THRESHOLD

VTSP

Details ICAO VTSP (HKT)
Name Phuket Intl
Region Thailand
Timezone Asia/Bangkok (UTC+7.0)
Stats Elevation 82 ft / 25 m (AMSL)
Location 8.113200° 98.316900°
Runways 1
Magnetic Variation 0.366° W

METAR

VTSP 031630Z VRB02KT 9999 FEW020 SCT100 26/21 Q1010 NOSIG

Decode

TAF

TAF VTSP 031100Z 0312/0418 08005KT 9999 FEW020 SCT100

Decode

Destination Runways

ID Width Length Bearing (true/mag) Surface Threshold Overrun Markings Lighting
09 150 ft / 46 m 9,851 ft / 3,003 m 84.58° / 84.94° ASPHALT 0 ft / 0 m 190 ft / 58 m PREC-APP EDGE THRESHOLD REIL-OMNI
27 150 ft / 46 m 9,851 ft / 3,003 m 264.58° / 264.95° ASPHALT 0 ft / 0 m 187 ft / 57 m PREC-APP EDGE THRESHOLD SALS

Approach Navaids

Runway Type Ident Frequency Range Bearing (true/mag) Slope Elevation
27 DME IPKT 109.90 MHz 18 nm / 33 km - - 82 ft / 25 m (AMSL)
27 MM MM - - 263.45° / 263.82 ° - 82 ft / 25 m (AMSL)
27 LOC-ILS IPKT 109.90 MHz 18 nm / 33 km 264.58° / 264.95 ° - 82 ft / 25 m (AMSL)
27 GS IPKT 109.90 MHz 10 nm / 19 km 264.58° / 264.95 ° 3.20° 82 ft / 25 m (AMSL)

Popular Alternatives